Midway, Canada
Current Conditions -  °F | °C
As of 8:00 AM on Monday 24 Nov 2014 (Local Time) from CYYF Reporting Station
Overcast Overcast  
Wind Chill: 27°   Ceiling: 4000
Heat Index: 36°   Visibility: 15mi
Dew Point: 30°   Wind: 14mph
Humidity: 81%   Direction: 150°SSE
Pressure: 30.31"   Gusts: 21mph
Location:  49.02°N, 118.78°W
Report Text: CYYF 241600Z 15012G18KT 15SM BKN040 OVC150 02/M01 A3031 RMK SC6AC2 VIRGA SLP278
Loading
Personal Weather Stations






























Interactive Weather Map New forecast layout! Learn more

10-Day Weather Forecast

Advertisements
Track Severe Weather on mobile